createdAt,value
2019-02-19T00:00:14.396Z,3.10
2019-02-19T00:02:44.978Z,3.10
2019-02-19T00:05:15.986Z,3.10
2019-02-19T00:07:46.598Z,3.00
2019-02-19T00:10:17.196Z,2.90
2019-02-19T00:12:47.454Z,2.80
2019-02-19T00:15:18.056Z,2.70
2019-02-19T00:17:48.614Z,2.70
2019-02-19T00:20:19.207Z,2.60
2019-02-19T00:22:49.128Z,2.60
2019-02-19T00:25:19.807Z,2.60
2019-02-19T00:27:50.282Z,2.60
2019-02-19T00:30:20.785Z,2.60
2019-02-19T00:32:51.318Z,2.60
2019-02-19T00:35:21.999Z,2.50
2019-02-19T00:37:52.562Z,2.50
2019-02-19T00:40:23.901Z,2.50
2019-02-19T00:42:54.410Z,2.40
2019-02-19T00:45:24.888Z,2.40
2019-02-19T00:47:55.297Z,2.30
2019-02-19T00:50:25.570Z,2.40
2019-02-19T00:52:55.768Z,2.40
2019-02-19T00:55:26.409Z,2.40
2019-02-19T00:57:56.778Z,2.40
2019-02-19T01:00:26.958Z,2.40
2019-02-19T01:02:57.577Z,2.40
2019-02-19T01:05:27.784Z,2.40
2019-02-19T01:07:58.402Z,2.40
2019-02-19T01:10:28.974Z,2.50
2019-02-19T01:12:59.562Z,2.50
2019-02-19T01:15:30.164Z,2.60
2019-02-19T01:18:00.593Z,2.60
2019-02-19T01:20:31.304Z,2.70
2019-02-19T01:23:01.833Z,2.70
2019-02-19T01:25:31.944Z,2.80
2019-02-19T01:28:02.152Z,2.80
2019-02-19T01:30:32.324Z,2.80
2019-02-19T01:33:03.206Z,2.70
2019-02-19T01:35:33.841Z,2.60
2019-02-19T01:38:03.755Z,2.50
2019-02-19T01:40:33.993Z,2.30
2019-02-19T01:43:04.575Z,2.20
2019-02-19T01:45:35.202Z,2.10
2019-02-19T01:48:05.463Z,2.10
2019-02-19T01:50:35.706Z,2.10
2019-02-19T01:53:06.274Z,2.20
2019-02-19T01:55:36.794Z,2.20
2019-02-19T01:58:07.086Z,2.20
2019-02-19T02:00:36.910Z,2.10
2019-02-19T02:03:07.178Z,2.20
2019-02-19T02:05:37.460Z,2.20
2019-02-19T02:08:07.718Z,2.20
2019-02-19T02:10:38.223Z,2.10
2019-02-19T02:13:08.426Z,2.10
2019-02-19T02:15:42.693Z,2.20
2019-02-19T02:18:10.316Z,2.20
2019-02-19T02:20:41.760Z,2.40
2019-02-19T02:23:12.236Z,2.70
2019-02-19T02:25:42.682Z,2.90
2019-02-19T02:28:13.296Z,3.10
2019-02-19T02:30:43.590Z,3.20
2019-02-19T02:33:13.524Z,3.30
2019-02-19T02:35:43.702Z,3.40
2019-02-19T02:38:13.896Z,3.40
2019-02-19T02:40:44.490Z,3.40
2019-02-19T02:43:14.965Z,3.40
2019-02-19T02:45:52.732Z,3.40
2019-02-19T02:48:17.186Z,3.40
2019-02-19T02:50:47.748Z,3.40
2019-02-19T02:53:18.212Z,3.60
2019-02-19T02:55:48.401Z,3.70
2019-02-19T02:58:18.930Z,3.70
2019-02-19T03:00:49.142Z,3.80
2019-02-19T03:03:19.866Z,3.80
2019-02-19T03:06:07.450Z,3.90
2019-02-19T03:08:37.853Z,4.00
2019-02-19T03:11:08.321Z,4.20
2019-02-19T03:13:38.745Z,4.30
2019-02-19T03:16:08.937Z,4.40
2019-02-19T03:18:39.513Z,4.50
2019-02-19T03:21:10.046Z,4.50
2019-02-19T03:23:40.222Z,4.50
2019-02-19T03:26:10.382Z,4.40
2019-02-19T03:28:40.874Z,4.30
2019-02-19T03:31:11.195Z,4.30
2019-02-19T03:33:41.668Z,4.30
2019-02-19T03:36:12.166Z,4.30
2019-02-19T03:38:42.455Z,4.40
2019-02-19T03:41:13.184Z,4.40
2019-02-19T03:43:43.407Z,4.50
2019-02-19T03:46:13.982Z,4.50
2019-02-19T03:48:44.552Z,4.50
2019-02-19T03:51:14.663Z,4.50
2019-02-19T03:53:45.264Z,4.50
2019-02-19T03:56:15.424Z,4.40
2019-02-19T03:58:45.870Z,4.30
2019-02-19T04:01:16.348Z,4.10
2019-02-19T04:03:46.685Z,3.90
2019-02-19T04:06:17.164Z,3.80
2019-02-19T04:08:47.750Z,3.60
2019-02-19T04:11:17.929Z,3.50
2019-02-19T04:13:48.521Z,3.50
2019-02-19T04:16:21.302Z,3.50
2019-02-19T04:18:51.096Z,3.60
2019-02-19T04:21:20.596Z,3.80
2019-02-19T04:23:51.171Z,3.90
2019-02-19T04:26:21.779Z,4.00
2019-02-19T04:28:52.394Z,4.00
2019-02-19T04:31:22.916Z,4.10
2019-02-19T04:33:53.093Z,4.10
2019-02-19T04:36:23.855Z,4.10
2019-02-19T04:38:54.131Z,4.10
2019-02-19T04:41:24.895Z,4.10
2019-02-19T04:43:55.441Z,4.10
2019-02-19T04:46:31.442Z,4.10
2019-02-19T04:48:58.022Z,4.10
2019-02-19T04:51:28.714Z,4.00
2019-02-19T04:53:58.542Z,4.00
2019-02-19T04:56:29.124Z,4.00
2019-02-19T04:58:59.502Z,4.00
2019-02-19T05:01:29.676Z,4.00
2019-02-19T05:04:00.367Z,4.00
2019-02-19T05:06:30.541Z,4.00
2019-02-19T05:09:19.844Z,3.90
2019-02-19T05:11:49.776Z,3.90
2019-02-19T05:14:20.150Z,3.90
2019-02-19T05:16:50.673Z,3.90
2019-02-19T05:19:21.286Z,3.90
2019-02-19T05:21:51.802Z,3.90
2019-02-19T05:24:22.299Z,3.90
2019-02-19T05:26:52.846Z,3.80
2019-02-19T05:29:23.376Z,3.80
2019-02-19T05:31:53.922Z,3.70
2019-02-19T05:34:24.140Z,3.70
2019-02-19T05:36:54.316Z,3.70
2019-02-19T05:39:24.901Z,3.60
2019-02-19T05:41:55.054Z,3.60
2019-02-19T05:44:25.338Z,3.50
2019-02-19T05:46:55.874Z,3.50
2019-02-19T05:49:26.049Z,3.50
2019-02-19T05:51:56.749Z,3.50
2019-02-19T05:54:26.559Z,3.60
2019-02-19T05:56:57.176Z,3.60
2019-02-19T05:59:27.391Z,3.50
2019-02-19T06:01:57.648Z,3.50
2019-02-19T06:04:28.318Z,3.50
2019-02-19T06:06:58.731Z,3.40
2019-02-19T06:09:29.021Z,3.40
2019-02-19T06:11:59.628Z,3.40
2019-02-19T06:14:30.022Z,3.40
2019-02-19T06:17:00.218Z,3.40
2019-02-19T06:19:30.036Z,3.30
2019-02-19T06:22:00.677Z,3.30
2019-02-19T06:24:30.861Z,3.30
2019-02-19T06:27:00.706Z,3.40
2019-02-19T06:29:31.435Z,3.30
2019-02-19T06:32:01.912Z,3.30
2019-02-19T06:34:32.062Z,3.40
2019-02-19T06:37:02.018Z,3.40
2019-02-19T06:39:32.609Z,3.40
2019-02-19T06:42:02.566Z,3.40
2019-02-19T06:44:33.036Z,3.40
2019-02-19T06:47:06.880Z,3.50
2019-02-19T06:49:35.496Z,3.50
2019-02-19T06:52:05.992Z,3.50
2019-02-19T06:54:35.840Z,3.60
2019-02-19T06:57:06.177Z,3.60
2019-02-19T06:59:36.342Z,3.50
2019-02-19T07:02:24.526Z,3.60
2019-02-19T07:04:57.514Z,3.60
2019-02-19T07:07:27.755Z,3.70
2019-02-19T07:09:58.409Z,3.70
2019-02-19T07:12:28.560Z,3.70
2019-02-19T07:14:58.518Z,3.70
2019-02-19T07:17:29.122Z,3.70
2019-02-19T07:19:59.396Z,3.70
2019-02-19T07:22:30.056Z,3.70
2019-02-19T07:25:00.651Z,3.80
2019-02-19T07:27:31.130Z,3.80
2019-02-19T07:30:01.815Z,3.90
2019-02-19T07:32:31.980Z,4.00
2019-02-19T07:35:02.325Z,4.00
2019-02-19T07:37:32.915Z,4.10
2019-02-19T07:40:03.154Z,4.10
2019-02-19T07:42:33.028Z,4.10
2019-02-19T07:45:03.170Z,4.10
2019-02-19T07:47:33.383Z,4.10
2019-02-19T07:50:03.968Z,4.10
2019-02-19T07:52:34.255Z,4.20
2019-02-19T07:55:04.417Z,4.20
2019-02-19T07:57:35.022Z,4.20
2019-02-19T08:00:05.262Z,4.20
2019-02-19T08:02:35.039Z,4.10
2019-02-19T08:05:06.002Z,4.10
2019-02-19T08:07:36.316Z,4.10
2019-02-19T08:10:07.059Z,4.20
2019-02-19T08:12:37.614Z,4.30
2019-02-19T08:15:08.190Z,4.40
2019-02-19T08:17:38.433Z,4.50
2019-02-19T08:20:15.412Z,4.60
2019-02-19T08:22:40.609Z,4.70
2019-02-19T08:25:10.997Z,4.80
2019-02-19T08:27:41.607Z,5.00
2019-02-19T08:30:30.970Z,5.10
2019-02-19T08:33:01.336Z,5.20
2019-02-19T08:35:31.194Z,5.30
2019-02-19T08:38:01.823Z,5.40
2019-02-19T08:40:32.125Z,5.50
2019-02-19T08:43:02.358Z,5.60
2019-02-19T08:45:32.897Z,5.80
2019-02-19T08:48:03.495Z,5.90
2019-02-19T08:50:33.800Z,6.00
2019-02-19T08:53:04.251Z,6.20
2019-02-19T08:55:34.927Z,6.30
2019-02-19T08:58:05.479Z,6.40
2019-02-19T09:00:35.699Z,6.50
2019-02-19T09:03:05.588Z,6.50
2019-02-19T09:05:35.986Z,6.60
2019-02-19T09:08:06.210Z,6.60
2019-02-19T09:10:36.098Z,6.50
2019-02-19T09:13:06.413Z,6.40
2019-02-19T09:15:36.728Z,6.30
2019-02-19T09:18:07.090Z,6.20
2019-02-19T09:20:37.431Z,6.10
2019-02-19T09:23:06.958Z,6.00
2019-02-19T09:25:37.546Z,6.00
2019-02-19T09:28:08.029Z,6.10
2019-02-19T09:30:38.608Z,6.20
2019-02-19T09:33:08.680Z,6.20
2019-02-19T09:35:39.219Z,6.30
2019-02-19T09:38:09.200Z,6.30
2019-02-19T09:40:39.767Z,6.40
2019-02-19T09:43:09.969Z,6.40
2019-02-19T09:45:40.514Z,6.50
2019-02-19T09:48:10.894Z,6.60
2019-02-19T09:50:41.378Z,6.70
2019-02-19T09:53:11.961Z,6.70
2019-02-19T09:55:43.832Z,6.80
2019-02-19T09:58:14.755Z,6.80
2019-02-19T10:00:44.952Z,6.90
2019-02-19T10:03:15.879Z,7.00
2019-02-19T10:05:48.035Z,7.10
2019-02-19T10:08:18.521Z,7.20
2019-02-19T10:10:48.436Z,7.30
2019-02-19T10:13:18.917Z,7.40
2019-02-19T10:15:48.879Z,7.50
2019-02-19T10:18:19.216Z,7.60
2019-02-19T10:20:51.691Z,7.60
2019-02-19T10:23:22.147Z,7.70
2019-02-19T10:25:52.100Z,7.80
2019-02-19T10:28:23.186Z,7.90
2019-02-19T10:30:53.732Z,7.90
2019-02-19T10:33:24.204Z,7.80
2019-02-19T10:35:54.635Z,7.80
2019-02-19T10:38:24.998Z,8.00
2019-02-19T10:40:55.192Z,8.10
2019-02-19T10:43:25.454Z,8.10
2019-02-19T10:45:55.636Z,8.20
2019-02-19T10:48:26.325Z,8.30
2019-02-19T10:50:56.622Z,8.20
2019-02-19T10:53:26.816Z,8.30
2019-02-19T10:55:57.410Z,8.30
2019-02-19T10:58:27.931Z,8.30
2019-02-19T11:00:58.574Z,8.40
2019-02-19T11:03:29.064Z,8.50
2019-02-19T11:05:59.013Z,8.50
2019-02-19T11:08:29.290Z,8.50
2019-02-19T11:10:59.558Z,8.50
2019-02-19T11:13:29.485Z,8.50
2019-02-19T11:16:00.027Z,8.50
2019-02-19T11:18:30.545Z,8.50
2019-02-19T11:21:01.106Z,8.50
2019-02-19T11:23:31.515Z,8.60
2019-02-19T11:26:02.056Z,8.60
2019-02-19T11:28:31.648Z,8.60
2019-02-19T11:31:02.289Z,8.60
2019-02-19T11:33:32.530Z,8.60
2019-02-19T11:36:02.748Z,8.60
2019-02-19T11:38:33.224Z,8.80
2019-02-19T11:41:03.536Z,9.00
2019-02-19T11:43:33.668Z,9.20
2019-02-19T11:46:03.942Z,9.40
2019-02-19T11:48:37.025Z,9.60
2019-02-19T11:51:05.768Z,9.80
2019-02-19T11:53:35.960Z,9.90
2019-02-19T11:56:06.434Z,10.10
2019-02-19T11:58:36.967Z,10.20
2019-02-19T12:01:07.739Z,10.40
2019-02-19T12:03:37.966Z,10.50
2019-02-19T12:06:08.466Z,10.60
2019-02-19T12:08:39.461Z,10.60
2019-02-19T12:11:10.236Z,10.70
2019-02-19T12:13:40.515Z,10.80
2019-02-19T12:16:11.161Z,10.90
2019-02-19T12:18:46.092Z,11.00
2019-02-19T12:21:13.456Z,11.10
2019-02-19T12:23:44.025Z,11.30
2019-02-19T12:26:14.558Z,11.40
2019-02-19T12:28:45.016Z,11.60
2019-02-19T12:31:14.858Z,11.70
2019-02-19T12:33:45.789Z,11.80
2019-02-19T12:36:16.027Z,11.90
2019-02-19T12:38:46.220Z,12.00
2019-02-19T12:41:16.306Z,12.10
2019-02-19T12:43:45.770Z,12.20
2019-02-19T12:46:16.239Z,12.30
2019-02-19T12:48:54.445Z,12.40
2019-02-19T12:51:26.232Z,12.50
2019-02-19T12:53:52.502Z,12.50
2019-02-19T12:56:22.746Z,12.40
2019-02-19T12:58:53.227Z,12.20
2019-02-19T13:01:23.587Z,12.10
2019-02-19T13:03:53.826Z,12.10
2019-02-19T13:06:24.048Z,12.00
2019-02-19T13:08:54.221Z,11.90
2019-02-19T13:11:24.835Z,11.80
2019-02-19T13:13:55.130Z,11.80
2019-02-19T13:16:25.078Z,11.70
2019-02-19T13:19:03.054Z,11.70
2019-02-19T13:21:27.088Z,11.60
2019-02-19T13:23:57.750Z,11.60
2019-02-19T13:26:28.330Z,11.50
2019-02-19T13:28:58.837Z,11.50
2019-02-19T13:31:29.490Z,11.50
2019-02-19T13:34:00.024Z,11.40
2019-02-19T13:36:30.529Z,11.30
2019-02-19T13:39:03.927Z,11.20
2019-02-19T13:41:34.643Z,11.20
2019-02-19T13:44:04.174Z,11.10
2019-02-19T13:46:34.739Z,11.10
2019-02-19T13:49:11.973Z,11.00
2019-02-19T13:51:37.195Z,11.10
2019-02-19T13:54:12.032Z,11.10
2019-02-19T13:56:42.620Z,11.10
2019-02-19T13:59:12.989Z,11.20
2019-02-19T14:01:43.223Z,11.20
2019-02-19T14:04:13.860Z,11.30
2019-02-19T14:06:44.166Z,11.30
2019-02-19T14:09:14.562Z,11.20
2019-02-19T14:11:43.716Z,11.10
2019-02-19T14:14:35.543Z,11.10
2019-02-19T14:17:08.267Z,10.90
2019-02-19T14:19:44.867Z,10.80
2019-02-19T14:22:32.698Z,10.80
2019-02-19T14:25:37.307Z,10.70
2019-02-19T14:28:24.874Z,10.70
2019-02-19T14:31:13.275Z,10.60
2019-02-19T14:34:17.880Z,10.50
2019-02-19T14:37:13.700Z,10.50
2019-02-19T14:40:10.556Z,10.40
2019-02-19T14:43:03.149Z,10.30
2019-02-19T14:45:48.411Z,10.20
2019-02-19T14:48:36.368Z,10.10
2019-02-19T14:51:25.610Z,10.00
2019-02-19T14:54:13.441Z,9.90
2019-02-19T14:56:51.944Z,9.80
2019-02-19T14:59:44.384Z,9.60
2019-02-19T15:02:30.367Z,9.60
2019-02-19T15:05:19.803Z,9.40
2019-02-19T15:08:05.819Z,9.40
2019-02-19T15:10:54.411Z,9.20
2019-02-19T15:13:42.288Z,9.20
2019-02-19T15:16:34.407Z,9.10
2019-02-19T15:19:23.350Z,9.10
2019-02-19T15:22:11.490Z,9.00
2019-02-19T15:24:51.944Z,8.90
2019-02-19T15:27:59.322Z,8.90
2019-02-19T15:30:53.875Z,8.80
2019-02-19T15:33:37.123Z,8.70
2019-02-19T15:36:22.804Z,8.70
2019-02-19T15:39:06.741Z,8.60
2019-02-19T15:41:56.411Z,8.60
2019-02-19T15:44:51.812Z,8.50
2019-02-19T15:47:44.442Z,8.50
2019-02-19T15:50:52.015Z,8.50
2019-02-19T15:53:41.287Z,8.50
2019-02-19T15:56:30.126Z,8.40
2019-02-19T15:59:19.408Z,8.40
2019-02-19T16:02:11.817Z,8.40
2019-02-19T16:04:51.764Z,8.40
2019-02-19T16:07:28.739Z,8.40
2019-02-19T16:10:11.961Z,8.30
2019-02-19T16:13:10.135Z,8.20
2019-02-19T16:16:04.907Z,8.20
2019-02-19T16:18:54.092Z,8.20
2019-02-19T16:21:38.528Z,8.20
2019-02-19T16:24:22.145Z,8.20
2019-02-19T16:27:10.496Z,8.20
2019-02-19T16:30:03.041Z,8.30
2019-02-19T16:32:58.111Z,8.30
2019-02-19T16:35:50.435Z,8.20
2019-02-19T16:38:34.887Z,8.20
2019-02-19T16:41:22.733Z,8.20
2019-02-19T16:44:10.760Z,8.20
2019-02-19T16:47:02.483Z,8.20
2019-02-19T16:49:40.778Z,8.10
2019-02-19T16:52:28.606Z,8.10
2019-02-19T16:55:04.772Z,8.20
2019-02-19T16:57:41.012Z,8.10
2019-02-19T17:00:26.525Z,8.10
2019-02-19T17:03:14.536Z,8.10
2019-02-19T17:05:49.517Z,8.10
2019-02-19T17:08:41.879Z,8.10
2019-02-19T17:11:43.630Z,8.10
2019-02-19T17:14:47.935Z,8.10
2019-02-19T17:17:30.354Z,8.00
2019-02-19T17:20:28.804Z,7.90
2019-02-19T17:23:01.384Z,7.80
2019-02-19T17:25:59.645Z,7.80
2019-02-19T17:28:47.155Z,7.80
2019-02-19T17:31:35.076Z,7.80
2019-02-19T17:34:26.936Z,7.70
2019-02-19T17:37:15.257Z,7.70
2019-02-19T17:40:07.579Z,7.80
2019-02-19T17:43:12.308Z,7.80
2019-02-19T17:46:04.007Z,7.80
2019-02-19T17:48:50.508Z,7.80
2019-02-19T17:51:45.793Z,7.80
2019-02-19T17:54:38.022Z,7.80
2019-02-19T17:57:30.560Z,7.80
2019-02-19T18:00:21.622Z,7.80
2019-02-19T18:03:09.193Z,7.80
2019-02-19T18:05:57.008Z,7.70
2019-02-19T18:08:44.836Z,7.70
2019-02-19T18:11:31.117Z,7.70
2019-02-19T18:14:19.261Z,7.70
2019-02-19T18:17:07.391Z,7.70
2019-02-19T18:19:37.901Z,7.60
2019-02-19T18:22:08.478Z,7.60
2019-02-19T18:24:38.981Z,7.60
2019-02-19T18:27:09.573Z,7.50
2019-02-19T18:29:39.545Z,7.50
2019-02-19T18:32:10.258Z,7.40
2019-02-19T18:34:40.845Z,7.30
2019-02-19T18:37:11.471Z,7.30
2019-02-19T18:39:41.932Z,7.30
2019-02-19T18:42:12.193Z,7.20
2019-02-19T18:44:42.471Z,7.10
2019-02-19T18:47:12.795Z,7.10
2019-02-19T18:49:43.336Z,7.10
2019-02-19T18:52:13.700Z,7.10
2019-02-19T18:54:44.199Z,7.10
2019-02-19T18:57:14.490Z,7.10
2019-02-19T18:59:45.127Z,7.00
2019-02-19T19:02:15.587Z,7.00
2019-02-19T19:04:46.225Z,6.90
2019-02-19T19:07:16.694Z,6.90
2019-02-19T19:09:46.883Z,6.90
2019-02-19T19:12:17.192Z,6.80
2019-02-19T19:14:47.791Z,6.80
2019-02-19T19:17:18.323Z,6.80
2019-02-19T19:19:48.874Z,6.70
2019-02-19T19:22:18.819Z,6.70
2019-02-19T19:24:49.127Z,6.70
2019-02-19T19:27:19.657Z,6.70
2019-02-19T19:29:50.313Z,6.60
2019-02-19T19:32:20.750Z,6.60
2019-02-19T19:34:51.369Z,6.60
2019-02-19T19:37:21.999Z,6.60
2019-02-19T19:39:52.302Z,6.50
2019-02-19T19:42:22.675Z,6.50
2019-02-19T19:44:53.350Z,6.50
2019-02-19T19:47:23.581Z,6.50
2019-02-19T19:49:54.129Z,6.40
2019-02-19T19:52:24.684Z,6.40
2019-02-19T19:54:55.409Z,6.30
2019-02-19T19:57:25.362Z,6.20
2019-02-19T19:59:55.670Z,6.20
2019-02-19T20:02:26.279Z,6.10
2019-02-19T20:04:56.477Z,6.10
2019-02-19T20:07:27.037Z,6.10
2019-02-19T20:09:57.295Z,6.10
2019-02-19T20:12:27.843Z,6.00
2019-02-19T20:14:58.211Z,5.90
2019-02-19T20:17:28.791Z,5.90
2019-02-19T20:19:59.013Z,5.80
2019-02-19T20:22:29.845Z,5.80
2019-02-19T20:25:00.407Z,5.90
2019-02-19T20:27:31.015Z,5.80
2019-02-19T20:30:01.618Z,5.80
2019-02-19T20:32:32.080Z,5.80
2019-02-19T20:35:02.781Z,5.80
2019-02-19T20:37:33.342Z,5.70
2019-02-19T20:40:03.584Z,5.60
2019-02-19T20:42:34.283Z,5.60
2019-02-19T20:45:05.226Z,5.50
2019-02-19T20:47:35.860Z,5.40
2019-02-19T20:50:06.855Z,5.40
2019-02-19T20:52:37.091Z,5.30
2019-02-19T20:55:07.617Z,5.30
2019-02-19T20:57:38.171Z,5.30
2019-02-19T21:00:11.447Z,5.30
2019-02-19T21:02:41.996Z,5.30
2019-02-19T21:05:12.648Z,5.30
2019-02-19T21:07:43.376Z,5.30
2019-02-19T21:10:15.633Z,5.20
2019-02-19T21:12:45.962Z,5.30
2019-02-19T21:15:16.536Z,5.20
2019-02-19T21:17:46.088Z,5.20
2019-02-19T21:20:16.147Z,5.20
2019-02-19T21:22:46.610Z,5.20
2019-02-19T21:25:17.157Z,5.20
2019-02-19T21:27:47.463Z,5.10
2019-02-19T21:30:17.725Z,5.10
2019-02-19T21:32:47.925Z,5.00
2019-02-19T21:35:18.671Z,5.00
2019-02-19T21:37:49.283Z,4.90
2019-02-19T21:40:20.007Z,4.90
2019-02-19T21:42:50.604Z,4.90
2019-02-19T21:45:21.169Z,4.90
2019-02-19T21:47:51.490Z,4.90
2019-02-19T21:50:21.723Z,4.90
2019-02-19T21:52:52.011Z,4.80
2019-02-19T21:55:22.571Z,4.80
2019-02-19T21:57:53.190Z,4.80
2019-02-19T22:00:23.823Z,4.80
2019-02-19T22:02:54.411Z,4.70
2019-02-19T22:05:24.673Z,4.70
2019-02-19T22:07:54.894Z,4.60
2019-02-19T22:10:25.443Z,4.60
2019-02-19T22:12:55.915Z,4.50
2019-02-19T22:15:26.497Z,4.50
2019-02-19T22:17:56.974Z,4.50
2019-02-19T22:20:42.406Z,4.50
2019-02-19T22:23:12.958Z,4.50
2019-02-19T22:25:43.715Z,4.50
2019-02-19T22:28:14.093Z,4.50
2019-02-19T22:30:44.738Z,4.60
2019-02-19T22:33:14.649Z,4.50
2019-02-19T22:35:45.165Z,4.50
2019-02-19T22:38:15.397Z,4.50
2019-02-19T22:40:54.777Z,4.50
2019-02-19T22:43:17.899Z,4.50
2019-02-19T22:45:48.532Z,4.50
2019-02-19T22:48:18.715Z,4.50
2019-02-19T22:50:49.431Z,4.60
2019-02-19T22:53:37.207Z,4.60
2019-02-19T22:56:14.290Z,4.60
2019-02-19T22:58:44.514Z,4.60
2019-02-19T23:01:24.254Z,4.60
2019-02-19T23:03:56.250Z,4.60
2019-02-19T23:06:26.734Z,4.60
2019-02-19T23:08:57.261Z,4.60
2019-02-19T23:11:27.611Z,4.60
2019-02-19T23:13:57.847Z,4.60
2019-02-19T23:16:28.480Z,4.60
2019-02-19T23:18:58.284Z,4.60
2019-02-19T23:21:28.117Z,4.60
2019-02-19T23:23:58.317Z,4.60
2019-02-19T23:26:28.794Z,4.60
2019-02-19T23:28:59.275Z,4.60
2019-02-19T23:31:29.208Z,4.60
2019-02-19T23:33:59.748Z,4.60
2019-02-19T23:36:37.711Z,4.60
2019-02-19T23:39:09.719Z,4.50
2019-02-19T23:41:40.070Z,4.50
2019-02-19T23:44:28.999Z,4.50
2019-02-19T23:46:59.603Z,4.50
2019-02-19T23:49:29.815Z,4.50
2019-02-19T23:52:00.311Z,4.40
2019-02-19T23:54:30.501Z,4.40
2019-02-19T23:57:00.796Z,4.40
2019-02-19T23:59:30.897Z,4.50
